createdAt,value
2019-06-01T00:00:20.567Z,99289.77
2019-06-01T00:02:56.113Z,99297.59
2019-06-01T00:05:21.476Z,99296.28
2019-06-01T00:07:51.025Z,99293.23
2019-06-01T00:10:21.149Z,99297.17
2019-06-01T00:12:50.823Z,99291.27
2019-06-01T00:15:20.410Z,99293.59
2019-06-01T00:17:50.068Z,99292.66
2019-06-01T00:20:19.980Z,99291.22
2019-06-01T00:22:49.536Z,99293.41
2019-06-01T00:25:18.992Z,99295.51
2019-06-01T00:27:48.783Z,99293.77
2019-06-01T00:30:26.935Z,99297.26
2019-06-01T00:32:52.650Z,99293.44
2019-06-01T00:35:22.179Z,99297.94
2019-06-01T00:37:51.864Z,99298.45
2019-06-01T00:40:21.537Z,99300.56
2019-06-01T00:42:52.343Z,99299.45
2019-06-01T00:45:22.039Z,99302.45
2019-06-01T00:47:53.265Z,99303.45
2019-06-01T00:50:22.850Z,99301.59
2019-06-01T00:52:53.423Z,99300.58
2019-06-01T00:55:23.172Z,99299.78
2019-06-01T00:57:53.959Z,99295.16
2019-06-01T01:00:42.534Z,99293.63
2019-06-01T01:02:58.058Z,99293.91
2019-06-01T01:05:28.245Z,99294.78
2019-06-01T01:07:57.812Z,99293.20
2019-06-01T01:10:27.485Z,99292.80
2019-06-01T01:12:58.664Z,99291.17
2019-06-01T01:15:28.097Z,99296.72
2019-06-01T01:17:57.750Z,99293.63
2019-06-01T01:20:27.386Z,99298.69
2019-06-01T01:22:57.024Z,99292.92
2019-06-01T01:25:26.638Z,99294.78
2019-06-01T01:27:57.717Z,99291.66
2019-06-01T01:30:27.794Z,99295.50
2019-06-01T01:32:59.114Z,99290.80
2019-06-01T01:35:34.483Z,99289.40
2019-06-01T01:38:04.365Z,99292.05
2019-06-01T01:40:33.919Z,99292.44
2019-06-01T01:43:03.530Z,99294.33
2019-06-01T01:45:33.293Z,99290.64
2019-06-01T01:48:02.944Z,99296.23
2019-06-01T01:50:32.515Z,99289.86
2019-06-01T01:53:03.338Z,99288.41
2019-06-01T01:55:33.059Z,99290.55
2019-06-01T01:58:02.624Z,99288.05
2019-06-01T02:00:36.920Z,99288.03
2019-06-01T02:03:07.866Z,99285.68
2019-06-01T02:05:37.770Z,99280.24
2019-06-01T02:08:09.114Z,99280.27
2019-06-01T02:10:44.495Z,99281.36
2019-06-01T02:13:15.870Z,99271.53
2019-06-01T02:15:45.447Z,99274.31
2019-06-01T02:18:15.014Z,99271.84
2019-06-01T02:20:50.528Z,99222.67
2019-06-01T02:23:20.080Z,99269.44
2019-06-01T02:25:49.669Z,99270.17
2019-06-01T02:28:19.283Z,99263.50
2019-06-01T02:30:48.857Z,99268.11
2019-06-01T02:33:18.521Z,99264.71
2019-06-01T02:35:48.102Z,99264.42
2019-06-01T02:38:19.283Z,99262.97
2019-06-01T02:40:50.529Z,99257.48
2019-06-01T02:43:20.290Z,99255.02
2019-06-01T02:45:50.050Z,99252.27
2019-06-01T02:48:19.679Z,99260.23
2019-06-01T02:50:49.205Z,99260.00
2019-06-01T02:53:18.701Z,99265.26
2019-06-01T02:55:48.164Z,99266.70
2019-06-01T02:58:17.719Z,99270.06
2019-06-01T03:03:23.948Z,99272.48
2019-06-01T03:05:55.244Z,99274.50
2019-06-01T03:08:32.871Z,99273.00
2019-06-01T03:11:05.997Z,99270.63
2019-06-01T03:13:39.991Z,99270.92
2019-06-01T03:16:12.954Z,99271.38
2019-06-01T03:18:46.219Z,99270.64
2019-06-01T03:21:22.104Z,99271.34
2019-06-01T03:23:56.597Z,99274.84
2019-06-01T03:26:30.616Z,99267.52
2019-06-01T03:29:03.644Z,99272.04
2019-06-01T03:31:34.734Z,99269.94
2019-06-01T03:34:06.948Z,99267.15
2019-06-01T03:36:37.427Z,99269.45
2019-06-01T03:39:08.489Z,99263.88
2019-06-01T03:41:38.812Z,99261.34
2019-06-01T03:44:08.561Z,99260.02
2019-06-01T03:46:39.672Z,99261.89
2019-06-01T03:49:09.820Z,99261.80
2019-06-01T03:51:40.962Z,99260.55
2019-06-01T03:54:13.170Z,99262.18
2019-06-01T03:56:42.786Z,99264.62
2019-06-01T03:59:12.289Z,99267.20
2019-06-01T04:02:01.064Z,99261.87
2019-06-01T04:04:30.756Z,99263.27
2019-06-01T04:07:01.257Z,99263.41
2019-06-01T04:09:30.889Z,99267.33
2019-06-01T04:12:01.451Z,99265.98
2019-06-01T04:14:30.965Z,99268.52
2019-06-01T04:17:01.892Z,99267.31
2019-06-01T04:19:31.503Z,99263.15
2019-06-01T04:22:20.324Z,99263.67
2019-06-01T04:24:49.832Z,99261.34
2019-06-01T04:27:19.335Z,99270.13
2019-06-01T04:29:48.947Z,99270.63
2019-06-01T04:32:18.506Z,99268.31
2019-06-01T04:34:47.845Z,99271.67
2019-06-01T04:37:17.355Z,99270.39
2019-06-01T04:39:46.876Z,99269.95
2019-06-01T04:42:16.344Z,99273.19
2019-06-01T04:44:45.873Z,99270.88
2019-06-01T04:47:15.358Z,99274.52
2019-06-01T04:49:44.893Z,99276.22
2019-06-01T04:52:15.262Z,99272.37
2019-06-01T04:54:44.771Z,99271.45
2019-06-01T04:57:15.115Z,99279.59
2019-06-01T04:59:44.856Z,99270.25
2019-06-01T05:02:15.222Z,99270.08
2019-06-01T05:04:46.350Z,99271.33
2019-06-01T05:07:18.716Z,99267.47
2019-06-01T05:09:48.280Z,99266.34
2019-06-01T05:12:17.702Z,99271.53
2019-06-01T05:14:47.250Z,99269.20
2019-06-01T05:17:16.965Z,99271.56
2019-06-01T05:19:46.418Z,99276.59
2019-06-01T05:22:16.726Z,99279.59
2019-06-01T05:24:46.465Z,99275.33
2019-06-01T05:27:17.224Z,99284.17
2019-06-01T05:29:46.824Z,99284.37
2019-06-01T05:32:16.742Z,99284.64
2019-06-01T05:34:47.667Z,99284.95
2019-06-01T05:37:18.621Z,99282.91
2019-06-01T05:39:48.295Z,99290.13
2019-06-01T05:42:18.991Z,99292.56
2019-06-01T05:44:48.667Z,99288.87
2019-06-01T05:47:18.430Z,99288.09
2019-06-01T05:49:48.342Z,99289.98
2019-06-01T05:52:18.810Z,99291.14
2019-06-01T05:54:48.445Z,99283.98
2019-06-01T05:57:19.329Z,99283.73
2019-06-01T05:59:49.148Z,99277.79
2019-06-01T06:02:19.571Z,99273.66
2019-06-01T06:05:09.087Z,99273.89
2019-06-01T06:07:39.002Z,99277.77
2019-06-01T06:10:09.574Z,99281.25
2019-06-01T06:12:39.068Z,99276.45
2019-06-01T06:15:09.527Z,99275.02
2019-06-01T06:17:39.010Z,99275.45
2019-06-01T06:20:09.746Z,99275.27
2019-06-01T06:22:41.202Z,99277.55
2019-06-01T06:25:10.857Z,99269.67
2019-06-01T06:27:40.294Z,99276.64
2019-06-01T06:30:10.429Z,99278.75
2019-06-01T06:32:39.889Z,99276.94
2019-06-01T06:35:09.810Z,99281.12
2019-06-01T06:37:42.252Z,99268.83
2019-06-01T06:40:13.789Z,99272.75
2019-06-01T06:42:43.354Z,99263.44
2019-06-01T06:45:14.600Z,99257.17
2019-06-01T06:47:44.076Z,99255.83
2019-06-01T06:50:17.582Z,99255.42
2019-06-01T06:52:47.365Z,99251.48
2019-06-01T06:55:23.973Z,99252.09
2019-06-01T06:57:53.621Z,99247.97
2019-06-01T07:00:24.788Z,99251.75
2019-06-01T07:03:00.510Z,99252.32
2019-06-01T07:05:31.501Z,99247.99
2019-06-01T07:08:01.159Z,99242.15
2019-06-01T07:10:30.924Z,99245.95
2019-06-01T07:13:09.197Z,99245.91
2019-06-01T07:15:38.747Z,99245.42
2019-06-01T07:18:08.198Z,99246.72
2019-06-01T07:20:37.704Z,99241.50
2019-06-01T07:23:07.232Z,99245.03
2019-06-01T07:25:36.772Z,99253.07
2019-06-01T07:28:06.808Z,99254.41
2019-06-01T07:30:49.873Z,99245.48
2019-06-01T07:33:07.657Z,99228.64
2019-06-01T07:35:37.187Z,99217.04
2019-06-01T07:38:06.713Z,99214.70
2019-06-01T07:40:36.218Z,99225.05
2019-06-01T07:43:05.775Z,99206.86
2019-06-01T07:45:35.485Z,99186.47
2019-06-01T07:48:05.006Z,99173.51
2019-06-01T07:50:34.553Z,99167.03
2019-06-01T07:53:17.078Z,99138.58
2019-06-01T07:55:46.563Z,99174.10
2019-06-01T07:58:16.085Z,99151.70
2019-06-01T08:00:45.591Z,99156.63
2019-06-01T08:03:19.383Z,99150.41
2019-06-01T08:05:48.961Z,99145.59
2019-06-01T08:08:18.821Z,99166.83
2019-06-01T08:10:48.438Z,99156.37
2019-06-01T08:13:21.438Z,99139.14
2019-06-01T08:15:51.055Z,99134.88
2019-06-01T08:18:21.893Z,99129.11
2019-06-01T08:20:51.444Z,99142.08
2019-06-01T08:23:21.883Z,99142.52
2019-06-01T08:25:51.553Z,99135.85
2019-06-01T08:28:22.302Z,99115.44
2019-06-01T08:30:51.948Z,99122.63
2019-06-01T08:33:26.494Z,99118.29
2019-06-01T08:35:54.114Z,99102.67
2019-06-01T08:38:23.623Z,99099.07
2019-06-01T08:40:53.111Z,99097.58
2019-06-01T08:43:23.551Z,99116.34
2019-06-01T08:45:53.168Z,99136.55
2019-06-01T08:48:23.687Z,99130.34
2019-06-01T08:50:53.308Z,99112.14
2019-06-01T08:53:23.811Z,99110.33
2019-06-01T08:55:53.422Z,99103.98
2019-06-01T08:58:24.152Z,99095.06
2019-06-01T09:00:53.803Z,99106.04
2019-06-01T09:03:23.274Z,99106.16
2019-06-01T09:05:52.788Z,99120.49
2019-06-01T09:08:23.931Z,99103.02
2019-06-01T09:10:53.523Z,99097.12
2019-06-01T09:13:23.086Z,99095.66
2019-06-01T09:15:52.611Z,99102.56
2019-06-01T09:18:22.102Z,99097.50
2019-06-01T09:20:51.566Z,99101.11
2019-06-01T09:23:21.234Z,99100.02
2019-06-01T09:25:50.710Z,99099.61
2019-06-01T09:28:20.293Z,99094.43
2019-06-01T09:30:52.766Z,99100.64
2019-06-01T09:33:22.223Z,99106.50
2019-06-01T09:35:55.943Z,99088.55
2019-06-01T09:38:24.046Z,99085.69
2019-06-01T09:40:53.556Z,99075.51
2019-06-01T09:43:23.005Z,99075.62
2019-06-01T09:45:53.447Z,99092.96
2019-06-01T09:48:23.214Z,99075.61
2019-06-01T09:50:52.677Z,99072.95
2019-06-01T09:53:25.845Z,99087.16
2019-06-01T09:55:55.305Z,99073.87
2019-06-01T09:58:24.806Z,99091.63
2019-06-01T10:00:54.357Z,99092.70
2019-06-01T10:03:23.847Z,99089.88
2019-06-01T10:06:01.767Z,99086.92
2019-06-01T10:08:24.530Z,99087.24
2019-06-01T10:10:54.003Z,99093.80
2019-06-01T10:13:23.485Z,99088.27
2019-06-01T10:15:53.124Z,99086.11
2019-06-01T10:18:26.712Z,99082.51
2019-06-01T10:20:53.822Z,99078.77
2019-06-01T10:23:23.309Z,99078.17
2019-06-01T10:25:52.785Z,99093.97
2019-06-01T10:28:22.314Z,99092.55
2019-06-01T10:30:51.796Z,99091.53
2019-06-01T10:33:21.276Z,99087.31
2019-06-01T10:35:50.800Z,99088.34
2019-06-01T10:38:20.511Z,99079.05
2019-06-01T10:40:50.176Z,99073.05
2019-06-01T10:43:19.659Z,99062.86
2019-06-01T10:45:49.469Z,99059.81
2019-06-01T10:48:18.947Z,99052.34
2019-06-01T10:50:48.449Z,99047.63
2019-06-01T10:53:17.977Z,99046.23
2019-06-01T10:55:47.585Z,99047.50
2019-06-01T10:58:17.067Z,99052.27
2019-06-01T11:00:50.867Z,99048.94
2019-06-01T11:03:17.799Z,99038.63
2019-06-01T11:05:47.464Z,99044.09
2019-06-01T11:08:16.949Z,99049.45
2019-06-01T11:10:46.459Z,99049.50
2019-06-01T11:13:15.963Z,99047.50
2019-06-01T11:15:45.509Z,99043.86
2019-06-01T11:18:14.988Z,99036.39
2019-06-01T11:20:44.564Z,99032.14
2019-06-01T11:23:14.070Z,99020.42
2019-06-01T11:25:43.765Z,99013.38
2019-06-01T11:28:13.419Z,99022.48
2019-06-01T11:30:43.979Z,99021.02
2019-06-01T11:33:15.226Z,99023.30
2019-06-01T11:35:45.459Z,99004.66
2019-06-01T11:38:15.111Z,99016.88
2019-06-01T11:41:03.917Z,99005.58
2019-06-01T11:43:34.544Z,98999.96
2019-06-01T11:46:04.129Z,98998.47
2019-06-01T11:48:35.013Z,99006.05
2019-06-01T11:51:04.828Z,99000.05
2019-06-01T11:53:35.136Z,98996.97
2019-06-01T11:56:05.046Z,98992.57
2019-06-01T11:58:35.167Z,98987.39
2019-06-01T12:01:04.929Z,98984.90
2019-06-01T12:03:35.498Z,98983.49
2019-06-01T12:06:05.991Z,98984.55
2019-06-01T12:08:35.980Z,98993.98
2019-06-01T12:11:14.601Z,98994.83
2019-06-01T12:13:44.502Z,98994.97
2019-06-01T12:16:14.077Z,98979.41
2019-06-01T12:18:44.633Z,98980.62
2019-06-01T12:21:14.317Z,98983.19
2019-06-01T12:24:03.163Z,98986.47
2019-06-01T12:26:32.700Z,98986.98
2019-06-01T12:29:02.229Z,98979.67
2019-06-01T12:31:31.778Z,98975.77
2019-06-01T12:34:01.261Z,98970.39
2019-06-01T12:36:30.766Z,98962.27
2019-06-01T12:39:00.247Z,98955.45
2019-06-01T12:41:29.721Z,98956.42
2019-06-01T12:44:01.329Z,98950.84
2019-06-01T12:46:30.812Z,98950.97
2019-06-01T12:49:00.292Z,98946.22
2019-06-01T12:51:29.753Z,98948.92
2019-06-01T12:53:59.306Z,98948.67
2019-06-01T12:56:29.202Z,98939.38
2019-06-01T12:58:58.672Z,98939.66
2019-06-01T13:01:28.186Z,98939.57
2019-06-01T13:03:57.656Z,98943.31
2019-06-01T13:06:27.181Z,98928.22
2019-06-01T13:08:56.666Z,98939.59
2019-06-01T13:11:26.192Z,98927.15
2019-06-01T13:13:55.696Z,98922.58
2019-06-01T13:16:25.404Z,98925.99
2019-06-01T13:18:54.862Z,98915.34
2019-06-01T13:21:27.535Z,98911.33
2019-06-01T13:23:55.662Z,98909.73
2019-06-01T13:26:25.497Z,98910.81
2019-06-01T13:28:55.003Z,98907.61
2019-06-01T13:31:24.500Z,98915.06
2019-06-01T13:33:54.064Z,98912.80
2019-06-01T13:36:23.599Z,98908.98
2019-06-01T13:38:53.118Z,98901.82
2019-06-01T13:41:22.821Z,98895.38
2019-06-01T13:43:53.282Z,98891.93
2019-06-01T13:46:23.130Z,98903.27
2019-06-01T13:48:53.074Z,98896.64
2019-06-01T13:51:23.803Z,98897.86
2019-06-01T13:53:54.562Z,98883.05
2019-06-01T13:56:24.163Z,98881.52
2019-06-01T13:58:54.668Z,98875.78
2019-06-01T14:01:24.299Z,98874.69
2019-06-01T14:03:54.134Z,98878.91
2019-06-01T14:06:24.909Z,98879.59
2019-06-01T14:08:55.226Z,98882.80
2019-06-01T14:11:24.796Z,98878.81
2019-06-01T14:13:54.281Z,98876.05
2019-06-01T14:16:43.072Z,98878.56
2019-06-01T14:19:12.642Z,98869.77
2019-06-01T14:21:42.110Z,98858.68
2019-06-01T14:24:11.603Z,98850.27
2019-06-01T14:26:41.142Z,98848.45
2019-06-01T14:29:10.606Z,98843.20
2019-06-01T14:31:40.098Z,98839.36
2019-06-01T14:34:09.562Z,98837.01
2019-06-01T14:36:39.040Z,98839.70
2019-06-01T14:39:09.123Z,98834.87
2019-06-01T14:41:38.588Z,98832.98
2019-06-01T14:44:08.267Z,98842.57
2019-06-01T14:46:52.958Z,98832.44
2019-06-01T14:49:08.947Z,98833.25
2019-06-01T14:51:57.897Z,98828.69
2019-06-01T14:54:27.376Z,98833.33
2019-06-01T14:56:57.913Z,98830.02
2019-06-01T14:59:28.381Z,98822.31
2019-06-01T15:01:58.434Z,98823.02
2019-06-01T15:04:28.015Z,98820.51
2019-06-01T15:06:58.574Z,98817.50
2019-06-01T15:09:29.800Z,98815.23
2019-06-01T15:11:59.296Z,98816.02
2019-06-01T15:14:28.852Z,98809.30
2019-06-01T15:16:58.285Z,98808.44
2019-06-01T15:19:27.783Z,98810.76
2019-06-01T15:21:58.198Z,98809.06
2019-06-01T15:24:27.829Z,98806.84
2019-06-01T15:26:57.350Z,98808.41
2019-06-01T15:29:26.822Z,98804.05
2019-06-01T15:31:56.336Z,98806.73
2019-06-01T15:34:25.853Z,98797.03
2019-06-01T15:36:55.608Z,98800.17
2019-06-01T15:39:25.718Z,98801.16
2019-06-01T15:41:55.333Z,98801.67
2019-06-01T15:44:24.848Z,98799.34
2019-06-01T15:46:55.562Z,98807.00
2019-06-01T15:49:44.759Z,98802.38
2019-06-01T15:52:14.220Z,98799.30
2019-06-01T15:54:46.807Z,98799.02
2019-06-01T15:57:16.377Z,98797.28
2019-06-01T16:00:07.436Z,98792.30
2019-06-01T16:02:36.921Z,98798.44
2019-06-01T16:05:08.257Z,98797.31
2019-06-01T16:07:37.799Z,98796.35
2019-06-01T16:10:08.804Z,98795.41
2019-06-01T16:12:57.696Z,98793.15
2019-06-01T16:15:27.194Z,98799.97
2019-06-01T16:17:57.866Z,98805.09
2019-06-01T16:20:27.619Z,98795.78
2019-06-01T16:22:58.075Z,98795.45
2019-06-01T16:25:27.620Z,98793.03
2019-06-01T16:27:57.135Z,98793.14
2019-06-01T16:30:27.149Z,98798.16
2019-06-01T16:32:58.519Z,98791.34
2019-06-01T16:35:28.103Z,98788.75
2019-06-01T16:37:58.825Z,98788.09
2019-06-01T16:40:28.472Z,98787.51
2019-06-01T16:42:57.991Z,98785.03
2019-06-01T16:45:27.512Z,98792.16
2019-06-01T16:47:57.402Z,98784.80
2019-06-01T16:50:26.971Z,98792.55
2019-06-01T16:52:57.911Z,98788.86
2019-06-01T16:55:27.459Z,98792.27
2019-06-01T16:57:57.046Z,98785.27
2019-06-01T17:00:27.618Z,98785.81
2019-06-01T17:02:58.390Z,98784.66
2019-06-01T17:05:27.996Z,98782.48
2019-06-01T17:07:58.656Z,98782.98
2019-06-01T17:10:28.343Z,98781.63
2019-06-01T17:13:00.232Z,98780.59
2019-06-01T17:15:29.300Z,98786.04
2019-06-01T17:18:03.008Z,98785.24
2019-06-01T17:20:52.077Z,98779.53
2019-06-01T17:23:26.752Z,98783.82
2019-06-01T17:25:52.855Z,98780.38
2019-06-01T17:28:22.393Z,98781.34
2019-06-01T17:30:52.038Z,98781.39
2019-06-01T17:33:21.540Z,98777.58
2019-06-01T17:35:51.051Z,98777.91
2019-06-01T17:38:20.541Z,98775.77
2019-06-01T17:40:50.001Z,98782.93
2019-06-01T17:43:19.532Z,98787.38
2019-06-01T17:45:49.360Z,98784.09
2019-06-01T17:48:26.568Z,98781.12
2019-06-01T17:50:55.966Z,98787.24
2019-06-01T17:53:25.539Z,98786.03
2019-06-01T17:55:55.070Z,98786.12
2019-06-01T17:58:24.789Z,98786.06
2019-06-01T18:00:54.452Z,98786.84
2019-06-01T18:03:23.962Z,98788.89
2019-06-01T18:05:55.358Z,98796.02
2019-06-01T18:08:24.858Z,98796.30
2019-06-01T18:10:55.217Z,98798.16
2019-06-01T18:13:26.441Z,98796.40
2019-06-01T18:15:55.943Z,98794.59
2019-06-01T18:18:25.671Z,98794.88
2019-06-01T18:20:55.383Z,98793.00
2019-06-01T18:23:25.050Z,98796.91
2019-06-01T18:25:54.703Z,98797.25
2019-06-01T18:28:24.257Z,98797.86
2019-06-01T18:30:53.814Z,98792.23
2019-06-01T18:33:23.522Z,98795.73
2019-06-01T18:35:53.237Z,98792.34
2019-06-01T18:38:22.720Z,98793.14
2019-06-01T18:41:06.473Z,98792.60
2019-06-01T18:43:23.775Z,98791.25
2019-06-01T18:45:53.270Z,98789.02
2019-06-01T18:48:23.329Z,98788.67
2019-06-01T18:50:53.065Z,98789.80
2019-06-01T18:53:22.656Z,98787.56
2019-06-01T18:55:52.103Z,98787.73
2019-06-01T18:58:21.769Z,98789.03
2019-06-01T19:00:51.350Z,98800.81
2019-06-01T19:03:20.810Z,98799.41
2019-06-01T19:05:50.334Z,98802.05
2019-06-01T19:08:19.803Z,98803.59
2019-06-01T19:10:51.113Z,98806.58
2019-06-01T19:13:20.847Z,98810.05
2019-06-01T19:15:50.325Z,98811.57
2019-06-01T19:18:19.798Z,98811.03
2019-06-01T19:20:49.293Z,98821.80
2019-06-01T19:23:21.835Z,98823.88
2019-06-01T19:25:50.067Z,98826.31
2019-06-01T19:28:19.686Z,98831.46
2019-06-01T19:30:49.395Z,98834.70
2019-06-01T19:33:19.615Z,98830.77
2019-06-01T19:35:50.159Z,98836.64
2019-06-01T19:38:21.279Z,98836.92
2019-06-01T19:40:50.764Z,98841.84
2019-06-01T19:43:20.275Z,98840.98
2019-06-01T19:45:49.775Z,98844.56
2019-06-01T19:48:19.451Z,98843.24
2019-06-01T19:50:49.119Z,98849.76
2019-06-01T19:53:18.894Z,98849.52
2019-06-01T19:55:48.549Z,98847.48
2019-06-01T19:58:19.110Z,98854.20
2019-06-01T20:00:48.921Z,98858.07
2019-06-01T20:03:21.886Z,98857.02
2019-06-01T20:05:49.992Z,98860.45
2019-06-01T20:08:19.465Z,98860.06
2019-06-01T20:10:48.927Z,98859.84
2019-06-01T20:13:19.938Z,98857.75
2019-06-01T20:15:49.410Z,98862.76
2019-06-01T20:18:19.148Z,98864.00
2019-06-01T20:20:48.760Z,98860.55
2019-06-01T20:23:19.535Z,98861.40
2019-06-01T20:25:49.235Z,98861.95
2019-06-01T20:28:19.696Z,98863.20
2019-06-01T20:30:49.314Z,98861.84
2019-06-01T20:33:20.291Z,98861.27
2019-06-01T20:35:50.098Z,98863.20
2019-06-01T20:38:20.593Z,98860.80
2019-06-01T20:40:50.199Z,98862.45
2019-06-01T20:43:20.812Z,98866.20
2019-06-01T20:45:50.672Z,98870.98
2019-06-01T20:48:20.896Z,98870.91
2019-06-01T20:50:50.579Z,98871.56
2019-06-01T20:53:21.073Z,98869.84
2019-06-01T20:55:50.692Z,98868.88
2019-06-01T20:58:22.908Z,98876.56
2019-06-01T21:00:51.685Z,98874.05
2019-06-01T21:03:21.914Z,98873.60
2019-06-01T21:05:52.446Z,98870.98
2019-06-01T21:08:22.440Z,98869.53
2019-06-01T21:10:51.868Z,98869.21
2019-06-01T21:13:22.306Z,98870.50
2019-06-01T21:15:52.008Z,98873.91
2019-06-01T21:18:22.585Z,98873.00
2019-06-01T21:20:52.404Z,98877.52
2019-06-01T21:23:23.034Z,98878.35
2019-06-01T21:26:01.806Z,98880.17
2019-06-01T21:28:31.328Z,98873.34
2019-06-01T21:31:00.850Z,98872.42
2019-06-01T21:33:36.349Z,98873.98
2019-06-01T21:36:07.978Z,98875.89
2019-06-01T21:38:38.353Z,98873.14
2019-06-01T21:41:08.161Z,98869.34
2019-06-01T21:43:37.617Z,98869.50
2019-06-01T21:46:07.185Z,98867.52
2019-06-01T21:48:36.899Z,98863.35
2019-06-01T21:51:06.411Z,98869.95
2019-06-01T21:53:36.083Z,98869.02
2019-06-01T21:56:05.797Z,98866.41
2019-06-01T21:58:35.297Z,98865.13
2019-06-01T22:01:06.513Z,98864.36
2019-06-01T22:03:36.380Z,98861.55
2019-06-01T22:06:06.378Z,98866.21
2019-06-01T22:08:35.837Z,98865.92
2019-06-01T22:11:05.438Z,98867.06
2019-06-01T22:13:34.925Z,98859.20
2019-06-01T22:16:04.623Z,98862.05
2019-06-01T22:18:34.093Z,98860.97
2019-06-01T22:21:03.565Z,98855.55
2019-06-01T22:23:33.031Z,98856.23
2019-06-01T22:26:02.682Z,98857.39
2019-06-01T22:28:32.147Z,98851.95
2019-06-01T22:31:01.679Z,98854.59
2019-06-01T22:33:31.187Z,98853.62
2019-06-01T22:36:00.680Z,98855.58
2019-06-01T22:38:30.169Z,98851.02
2019-06-01T22:40:59.670Z,98846.94
2019-06-01T22:43:43.452Z,98844.87
2019-06-01T22:46:00.345Z,98846.54
2019-06-01T22:48:29.889Z,98841.45
2019-06-01T22:50:59.345Z,98847.02
2019-06-01T22:53:29.508Z,98843.26
2019-06-01T22:55:59.242Z,98843.59
2019-06-01T22:58:29.634Z,98842.94
2019-06-01T23:00:59.359Z,98850.20
2019-06-01T23:03:30.112Z,98846.27
2019-06-01T23:05:59.749Z,98843.95
2019-06-01T23:08:29.516Z,98849.91
2019-06-01T23:10:59.176Z,98844.47
2019-06-01T23:13:28.666Z,98842.49
2019-06-01T23:15:58.257Z,98837.73
2019-06-01T23:18:28.029Z,98841.86
2019-06-01T23:20:57.618Z,98838.89
2019-06-01T23:23:28.090Z,98841.84
2019-06-01T23:25:57.830Z,98845.32
2019-06-01T23:28:28.586Z,98842.71
2019-06-01T23:30:58.252Z,98840.74
2019-06-01T23:33:28.880Z,98840.56
2019-06-01T23:35:58.527Z,98837.78
2019-06-01T23:38:40.078Z,98835.80
2019-06-01T23:41:15.368Z,98830.05
2019-06-01T23:43:44.812Z,98832.19
2019-06-01T23:46:14.326Z,98832.69
2019-06-01T23:49:03.144Z,98830.56
2019-06-01T23:51:33.956Z,98828.92
2019-06-01T23:54:03.619Z,98829.73
2019-06-01T23:56:34.665Z,98825.80
2019-06-01T23:59:24.067Z,98823.31
